createdAt,value
2022-11-17T00:01:35.395Z,2.19
2022-11-17T00:04:03.673Z,2.22
2022-11-17T00:06:31.940Z,2.27
2022-11-17T00:09:00.163Z,2.30
2022-11-17T00:11:48.447Z,2.31
2022-11-17T00:14:36.714Z,2.30
2022-11-17T00:17:09.139Z,2.30
2022-11-17T00:19:56.811Z,2.30
2022-11-17T00:22:26.020Z,2.28
2022-11-17T00:24:54.232Z,2.28
2022-11-17T00:27:22.477Z,2.27
2022-11-17T00:29:50.728Z,2.26
2022-11-17T00:32:38.389Z,2.29
2022-11-17T00:35:07.269Z,2.20
2022-11-17T00:38:00.437Z,2.19
2022-11-17T00:40:28.845Z,2.20
2022-11-17T00:42:57.062Z,2.22
2022-11-17T00:45:25.261Z,2.24
2022-11-17T00:47:53.455Z,2.27
2022-11-17T00:50:21.654Z,2.28
2022-11-17T00:52:49.895Z,2.33
2022-11-17T00:55:18.163Z,2.32
2022-11-17T00:57:46.374Z,2.36
2022-11-17T01:00:16.123Z,2.40
2022-11-17T01:02:44.328Z,2.39
2022-11-17T01:05:12.609Z,2.45
2022-11-17T01:07:41.002Z,2.45
2022-11-17T01:10:10.299Z,2.51
2022-11-17T01:12:38.551Z,2.50
2022-11-17T01:15:08.358Z,2.42
2022-11-17T01:17:36.588Z,2.32
2022-11-17T01:20:05.672Z,2.37
2022-11-17T01:22:33.889Z,2.38
2022-11-17T01:25:02.112Z,2.37
2022-11-17T01:27:30.393Z,2.29
2022-11-17T01:29:58.619Z,2.36
2022-11-17T01:32:26.889Z,2.34
2022-11-17T01:34:55.068Z,2.30
2022-11-17T01:37:23.287Z,2.25
2022-11-17T01:39:51.527Z,2.16
2022-11-17T01:42:24.293Z,2.19
2022-11-17T01:45:19.410Z,2.12
2022-11-17T01:48:03.211Z,2.10
2022-11-17T01:50:49.405Z,2.06
2022-11-17T01:53:20.524Z,2.01
2022-11-17T01:55:59.891Z,2.02
2022-11-17T01:58:39.638Z,1.99
2022-11-17T02:01:07.889Z,1.99
2022-11-17T02:03:37.275Z,2.07
2022-11-17T02:06:17.181Z,2.14
2022-11-17T02:08:47.102Z,2.23
2022-11-17T02:11:19.332Z,2.29
2022-11-17T02:13:49.085Z,2.30
2022-11-17T02:16:18.077Z,2.30
2022-11-17T02:18:48.665Z,2.32
2022-11-17T02:21:49.487Z,2.35
2022-11-17T02:24:31.505Z,2.30
2022-11-17T02:27:46.985Z,2.28
2022-11-17T02:30:21.940Z,2.27
2022-11-17T02:33:30.256Z,2.26
2022-11-17T02:36:33.361Z,2.27
2022-11-17T02:39:13.250Z,2.35
2022-11-17T02:41:52.937Z,2.37
2022-11-17T02:44:56.509Z,2.38
2022-11-17T02:47:30.277Z,2.39
2022-11-17T02:50:06.657Z,2.45
2022-11-17T02:52:35.096Z,2.55
2022-11-17T02:55:10.536Z,2.63
2022-11-17T02:57:41.140Z,2.73
2022-11-17T03:00:20.094Z,2.79
2022-11-17T03:03:07.124Z,2.84
2022-11-17T03:05:56.929Z,2.89
2022-11-17T03:08:44.419Z,2.94
2022-11-17T03:11:13.858Z,2.97
2022-11-17T03:13:48.212Z,3.01
2022-11-17T03:16:37.909Z,3.03
2022-11-17T03:19:25.996Z,3.03
2022-11-17T03:22:28.208Z,3.05
2022-11-17T03:25:02.817Z,3.07
2022-11-17T03:27:42.894Z,3.10
2022-11-17T03:30:12.754Z,3.11
2022-11-17T03:32:45.467Z,3.16
2022-11-17T03:35:24.977Z,3.22
2022-11-17T03:38:01.555Z,3.27
2022-11-17T03:40:32.908Z,3.32
2022-11-17T03:43:07.039Z,3.34
2022-11-17T03:45:40.303Z,3.37
2022-11-17T03:48:28.987Z,3.40
2022-11-17T03:51:19.149Z,3.46
2022-11-17T03:53:48.107Z,3.47
2022-11-17T03:56:43.360Z,3.48
2022-11-17T03:59:19.154Z,3.53
2022-11-17T04:01:47.491Z,3.49
2022-11-17T04:04:21.601Z,3.44
2022-11-17T04:06:53.321Z,3.45
2022-11-17T04:09:24.598Z,3.53
2022-11-17T04:12:11.784Z,3.55
2022-11-17T04:14:58.535Z,3.58
2022-11-17T04:17:26.843Z,3.67
2022-11-17T04:19:55.190Z,3.76
2022-11-17T04:22:23.469Z,3.72
2022-11-17T04:24:51.794Z,3.71
2022-11-17T04:27:38.595Z,3.73
2022-11-17T04:30:07.532Z,3.63
2022-11-17T04:32:35.799Z,3.56
2022-11-17T04:35:04.528Z,3.60
2022-11-17T04:37:32.921Z,3.66
2022-11-17T04:40:01.224Z,3.71
2022-11-17T04:42:29.537Z,3.75
2022-11-17T04:44:57.946Z,3.80
2022-11-17T04:47:26.208Z,3.80
2022-11-17T04:49:54.523Z,3.74
2022-11-17T04:52:26.933Z,3.77
2022-11-17T04:54:58.054Z,3.82
2022-11-17T04:57:26.304Z,3.85
2022-11-17T04:59:54.701Z,3.85
2022-11-17T05:02:22.989Z,3.85
2022-11-17T05:04:57.093Z,3.85
2022-11-17T05:07:25.436Z,3.83
2022-11-17T05:09:53.787Z,3.83
2022-11-17T05:12:40.654Z,3.88
2022-11-17T05:15:09.403Z,3.91
2022-11-17T05:17:37.611Z,3.88
2022-11-17T05:20:07.004Z,3.86
2022-11-17T05:22:53.959Z,3.88
2022-11-17T05:25:22.315Z,3.94
2022-11-17T05:27:50.649Z,3.97
2022-11-17T05:30:19.091Z,4.03
2022-11-17T05:32:47.340Z,4.04
2022-11-17T05:35:18.288Z,4.08
2022-11-17T05:37:46.749Z,4.07
2022-11-17T05:40:15.672Z,4.03
2022-11-17T05:42:46.170Z,4.02
2022-11-17T05:45:14.514Z,4.01
2022-11-17T05:47:43.164Z,3.99
2022-11-17T05:50:11.506Z,3.95
2022-11-17T05:52:39.932Z,3.95
2022-11-17T05:55:08.190Z,3.97
2022-11-17T05:57:36.698Z,4.01
2022-11-17T06:00:05.941Z,4.05
2022-11-17T06:02:56.877Z,4.01
2022-11-17T06:05:25.995Z,4.00
2022-11-17T06:07:57.834Z,4.00
2022-11-17T06:10:27.355Z,4.02
2022-11-17T06:12:56.282Z,4.02
2022-11-17T06:15:24.634Z,4.01
2022-11-17T06:18:03.961Z,4.04
2022-11-17T06:20:41.338Z,4.07
2022-11-17T06:23:11.846Z,4.11
2022-11-17T06:25:40.257Z,4.16
2022-11-17T06:28:15.217Z,4.19
2022-11-17T06:30:44.061Z,4.24
2022-11-17T06:33:15.751Z,4.26
2022-11-17T06:35:45.913Z,4.18
2022-11-17T06:38:14.302Z,4.25
2022-11-17T06:40:42.683Z,4.31
2022-11-17T06:43:11.106Z,4.35
2022-11-17T06:45:41.725Z,4.37
2022-11-17T06:48:12.813Z,4.37
2022-11-17T06:50:41.592Z,4.35
2022-11-17T06:53:12.400Z,4.34
2022-11-17T06:55:42.010Z,4.39
2022-11-17T06:58:11.828Z,4.40
2022-11-17T07:00:40.402Z,4.41
2022-11-17T07:03:11.052Z,4.42
2022-11-17T07:05:40.437Z,4.43
2022-11-17T07:08:09.629Z,4.39
2022-11-17T07:10:38.628Z,4.49
2022-11-17T07:13:07.228Z,4.55
2022-11-17T07:15:35.787Z,4.57
2022-11-17T07:18:04.390Z,4.59
2022-11-17T07:20:32.903Z,4.60
2022-11-17T07:23:01.419Z,4.60
2022-11-17T07:25:29.928Z,4.57
2022-11-17T07:28:00.425Z,4.56
2022-11-17T07:30:29.423Z,4.61
2022-11-17T07:33:04.059Z,4.67
2022-11-17T07:35:32.464Z,4.73
2022-11-17T07:38:01.661Z,4.75
2022-11-17T07:40:31.675Z,4.76
2022-11-17T07:43:00.477Z,4.74
2022-11-17T07:45:31.804Z,4.71
2022-11-17T07:48:03.263Z,4.76
2022-11-17T07:50:32.742Z,4.75
2022-11-17T07:53:01.939Z,4.78
2022-11-17T07:55:30.312Z,4.87
2022-11-17T07:58:01.221Z,4.93
2022-11-17T08:00:31.860Z,4.95
2022-11-17T08:03:02.246Z,4.99
2022-11-17T08:05:32.380Z,4.96
2022-11-17T08:08:00.760Z,4.97
2022-11-17T08:10:32.516Z,5.02
2022-11-17T08:13:01.752Z,5.05
2022-11-17T08:15:30.972Z,5.04
2022-11-17T08:18:01.316Z,4.99
2022-11-17T08:20:30.263Z,4.99
2022-11-17T08:22:58.802Z,4.94
2022-11-17T08:25:28.062Z,4.91
2022-11-17T08:27:58.333Z,4.92
2022-11-17T08:30:27.022Z,4.86
2022-11-17T08:32:55.415Z,4.82
2022-11-17T08:35:26.090Z,4.93
2022-11-17T08:37:55.278Z,4.99
2022-11-17T08:40:23.639Z,5.08
2022-11-17T08:43:00.312Z,5.13
2022-11-17T08:45:29.194Z,5.11
2022-11-17T08:47:57.907Z,5.07
2022-11-17T08:50:26.925Z,5.06
2022-11-17T08:52:55.323Z,5.01
2022-11-17T08:55:23.884Z,4.99
2022-11-17T08:57:52.270Z,4.99
2022-11-17T09:00:22.009Z,4.99
2022-11-17T09:02:50.376Z,4.97
2022-11-17T09:05:18.724Z,4.97
2022-11-17T09:07:47.138Z,5.01
2022-11-17T09:10:15.585Z,5.02
2022-11-17T09:12:43.973Z,5.04
2022-11-17T09:15:12.526Z,5.05
2022-11-17T09:17:43.116Z,5.07
2022-11-17T09:20:12.386Z,5.09
2022-11-17T09:22:40.730Z,5.13
2022-11-17T09:25:13.335Z,5.14
2022-11-17T09:27:42.076Z,5.16
2022-11-17T09:30:11.308Z,5.18
2022-11-17T09:32:39.699Z,5.19
2022-11-17T09:35:09.468Z,5.19
2022-11-17T09:37:37.817Z,5.22
2022-11-17T09:40:07.571Z,5.22
2022-11-17T09:42:40.746Z,5.17
2022-11-17T09:45:14.813Z,5.22
2022-11-17T09:47:51.536Z,5.24
2022-11-17T09:50:45.292Z,5.23
2022-11-17T09:53:24.381Z,5.20
2022-11-17T09:56:03.639Z,5.15
2022-11-17T09:58:58.914Z,5.15
2022-11-17T10:01:29.212Z,5.16
2022-11-17T10:04:17.058Z,5.20
2022-11-17T10:07:04.245Z,5.29
2022-11-17T10:09:52.272Z,5.32
2022-11-17T10:12:32.511Z,5.30
2022-11-17T10:15:22.276Z,5.25
2022-11-17T10:17:50.982Z,5.25
2022-11-17T10:20:20.161Z,5.21
2022-11-17T10:22:52.354Z,5.19
2022-11-17T10:25:37.876Z,5.12
2022-11-17T10:28:09.342Z,5.17
2022-11-17T10:30:37.693Z,5.22
2022-11-17T10:33:06.392Z,5.23
2022-11-17T10:35:36.268Z,5.26
2022-11-17T10:38:08.391Z,5.27
2022-11-17T10:40:39.457Z,5.23
2022-11-17T10:43:14.003Z,5.22
2022-11-17T10:45:47.984Z,5.24
2022-11-17T10:48:19.539Z,5.27
2022-11-17T10:51:00.111Z,5.27
2022-11-17T10:53:46.674Z,5.21
2022-11-17T10:56:25.086Z,5.06
2022-11-17T10:59:02.311Z,4.99
2022-11-17T11:01:46.495Z,4.95
2022-11-17T11:04:42.109Z,4.93
2022-11-17T11:07:24.311Z,4.90
2022-11-17T11:10:07.687Z,4.84
2022-11-17T11:12:52.561Z,4.81
2022-11-17T11:15:24.725Z,4.79
2022-11-17T11:17:53.098Z,4.77
2022-11-17T11:20:41.916Z,4.76
2022-11-17T11:23:19.847Z,4.77
2022-11-17T11:26:01.819Z,4.74
2022-11-17T11:28:55.070Z,4.78
2022-11-17T11:31:39.375Z,4.77
2022-11-17T11:34:20.327Z,4.78
2022-11-17T11:36:59.471Z,4.81
2022-11-17T11:39:55.380Z,4.78
2022-11-17T11:42:35.619Z,4.78
2022-11-17T11:45:33.917Z,4.77
2022-11-17T11:48:34.020Z,4.77
2022-11-17T11:51:13.747Z,4.80
2022-11-17T11:54:00.053Z,4.82
2022-11-17T11:56:46.297Z,4.79
2022-11-17T11:59:50.313Z,4.77
2022-11-17T12:02:27.774Z,4.80
2022-11-17T12:05:05.167Z,4.84
2022-11-17T12:08:17.816Z,4.85
2022-11-17T12:11:25.716Z,4.87
2022-11-17T12:13:54.713Z,4.95
2022-11-17T12:16:41.067Z,4.95
2022-11-17T12:19:53.565Z,5.01
2022-11-17T12:22:33.826Z,5.06
2022-11-17T12:25:29.250Z,5.00
2022-11-17T12:27:57.946Z,4.98
2022-11-17T12:30:37.731Z,4.95
2022-11-17T12:33:08.697Z,4.95
2022-11-17T12:35:39.721Z,4.86
2022-11-17T12:38:17.118Z,4.90
2022-11-17T12:40:54.083Z,4.91
2022-11-17T12:43:27.847Z,4.88
2022-11-17T12:45:56.157Z,4.85
2022-11-17T12:48:35.092Z,4.85
2022-11-17T12:51:10.835Z,4.85
2022-11-17T12:53:59.060Z,4.86
2022-11-17T12:57:00.377Z,4.80
2022-11-17T12:59:42.062Z,4.79
2022-11-17T13:02:31.476Z,4.75
2022-11-17T13:05:08.586Z,4.77
2022-11-17T13:07:37.119Z,4.78
2022-11-17T13:10:06.037Z,4.75
2022-11-17T13:12:34.461Z,4.77
2022-11-17T13:15:05.688Z,4.79
2022-11-17T13:17:43.805Z,4.77
2022-11-17T13:20:30.157Z,4.77
2022-11-17T13:23:09.614Z,4.76
2022-11-17T13:25:37.900Z,4.77
2022-11-17T13:28:06.365Z,4.75
2022-11-17T13:30:34.862Z,4.76
2022-11-17T13:33:04.127Z,4.71
2022-11-17T13:35:35.979Z,4.62
2022-11-17T13:38:07.080Z,4.60
2022-11-17T13:40:37.222Z,4.52
2022-11-17T13:43:07.619Z,4.51
2022-11-17T13:45:36.064Z,4.53
2022-11-17T13:48:04.450Z,4.56
2022-11-17T13:50:37.458Z,4.56
2022-11-17T13:53:09.378Z,4.49
2022-11-17T13:55:45.121Z,4.47
2022-11-17T13:58:40.912Z,4.46
2022-11-17T14:01:13.804Z,4.49
2022-11-17T14:03:46.620Z,4.45
2022-11-17T14:06:15.100Z,4.45
2022-11-17T14:09:02.508Z,4.47
2022-11-17T14:11:31.177Z,4.41
2022-11-17T14:14:01.372Z,4.41
2022-11-17T14:16:41.927Z,4.36
2022-11-17T14:19:16.454Z,4.33
2022-11-17T14:22:09.601Z,4.34
2022-11-17T14:24:38.167Z,4.32
2022-11-17T14:27:34.835Z,4.36
2022-11-17T14:30:05.656Z,4.39
2022-11-17T14:32:35.084Z,4.38
2022-11-17T14:35:03.700Z,4.33
2022-11-17T14:37:32.714Z,4.30
2022-11-17T14:40:03.965Z,4.32
2022-11-17T14:42:35.933Z,4.28
2022-11-17T14:45:05.280Z,4.27
2022-11-17T14:47:33.656Z,4.20
2022-11-17T14:50:02.141Z,4.18
2022-11-17T14:52:30.517Z,4.16
2022-11-17T14:54:59.258Z,4.21
2022-11-17T14:57:27.581Z,4.13
2022-11-17T14:59:55.891Z,4.05
2022-11-17T15:02:24.321Z,4.11
2022-11-17T15:04:53.263Z,4.05
2022-11-17T15:07:22.088Z,4.07
2022-11-17T15:09:50.422Z,4.07
2022-11-17T15:12:18.817Z,3.99
2022-11-17T15:14:48.100Z,3.95
2022-11-17T15:17:17.037Z,3.89
2022-11-17T15:19:45.731Z,3.77
2022-11-17T15:22:14.165Z,3.66
2022-11-17T15:24:42.582Z,3.66
2022-11-17T15:27:12.467Z,3.65
2022-11-17T15:29:40.764Z,3.59
2022-11-17T15:32:09.135Z,3.47
2022-11-17T15:34:37.428Z,3.39
2022-11-17T15:37:05.889Z,3.30
2022-11-17T15:39:34.234Z,3.30
2022-11-17T15:42:02.553Z,3.22
2022-11-17T15:44:30.854Z,3.21
2022-11-17T15:46:59.150Z,3.14
2022-11-17T15:49:27.454Z,3.08
2022-11-17T15:51:55.783Z,3.07
2022-11-17T15:54:24.151Z,3.02
2022-11-17T15:56:52.629Z,2.91
2022-11-17T15:59:21.190Z,2.87
2022-11-17T16:01:49.762Z,2.88
2022-11-17T16:04:18.198Z,2.86
2022-11-17T16:06:47.049Z,2.87
2022-11-17T16:09:16.279Z,2.87
2022-11-17T16:11:44.868Z,2.89
2022-11-17T16:14:15.025Z,2.74
2022-11-17T16:16:46.129Z,2.73
2022-11-17T16:19:14.931Z,2.76
2022-11-17T16:21:44.677Z,2.66
2022-11-17T16:24:13.355Z,2.64
2022-11-17T16:26:41.760Z,2.59
2022-11-17T16:29:10.518Z,2.53
2022-11-17T16:31:39.926Z,2.55
2022-11-17T16:34:13.798Z,2.51
2022-11-17T16:36:44.012Z,2.49
2022-11-17T16:39:17.203Z,2.50
2022-11-17T16:41:46.101Z,2.47
2022-11-17T16:44:17.107Z,2.42
2022-11-17T16:46:48.550Z,2.44
2022-11-17T16:49:19.636Z,2.44
2022-11-17T16:51:50.998Z,2.39
2022-11-17T16:54:20.342Z,2.39
2022-11-17T16:56:49.010Z,2.37
2022-11-17T16:59:17.848Z,2.33
2022-11-17T17:01:47.683Z,2.34
2022-11-17T17:04:16.412Z,2.25
2022-11-17T17:06:46.080Z,2.18
2022-11-17T17:09:15.445Z,2.18
2022-11-17T17:11:44.073Z,2.14
2022-11-17T17:14:15.029Z,2.08
2022-11-17T17:16:43.852Z,2.08
2022-11-17T17:19:14.534Z,2.13
2022-11-17T17:21:44.165Z,2.08
2022-11-17T17:24:12.824Z,2.02
2022-11-17T17:26:42.985Z,2.02
2022-11-17T17:29:11.903Z,2.01
2022-11-17T17:31:42.649Z,2.03
2022-11-17T17:34:13.632Z,1.98
2022-11-17T17:36:42.343Z,1.93
2022-11-17T17:39:16.069Z,1.88
2022-11-17T17:41:46.163Z,1.86
2022-11-17T17:44:18.054Z,1.87
2022-11-17T17:46:48.546Z,1.75
2022-11-17T17:49:19.380Z,1.67
2022-11-17T17:51:48.134Z,1.70
2022-11-17T17:54:21.585Z,1.64
2022-11-17T17:56:50.370Z,1.72
2022-11-17T17:59:19.466Z,1.64
2022-11-17T18:01:49.450Z,1.61
2022-11-17T18:04:18.131Z,1.54
2022-11-17T18:06:48.399Z,1.57
2022-11-17T18:09:20.510Z,1.51
2022-11-17T18:11:50.995Z,1.50
2022-11-17T18:14:24.766Z,1.50
2022-11-17T18:16:54.012Z,1.53
2022-11-17T18:19:26.873Z,1.50
2022-11-17T18:21:58.393Z,1.54
2022-11-17T18:24:26.930Z,1.55
2022-11-17T18:26:55.648Z,1.51
2022-11-17T18:29:24.929Z,1.50
2022-11-17T18:31:53.450Z,1.50
2022-11-17T18:34:24.629Z,1.48
2022-11-17T18:36:55.868Z,1.47
2022-11-17T18:39:25.078Z,1.41
2022-11-17T18:41:53.555Z,1.37
2022-11-17T18:44:22.080Z,1.36
2022-11-17T18:46:50.478Z,1.33
2022-11-17T18:49:19.427Z,1.31
2022-11-17T18:51:50.532Z,1.31
2022-11-17T18:54:18.999Z,1.33
2022-11-17T18:56:47.535Z,1.32
2022-11-17T18:59:18.729Z,1.28
2022-11-17T19:01:47.616Z,1.26
2022-11-17T19:04:16.202Z,1.28
2022-11-17T19:06:44.756Z,1.26
2022-11-17T19:09:13.808Z,1.32
2022-11-17T19:11:42.626Z,1.29
2022-11-17T19:14:11.010Z,1.31
2022-11-17T19:16:44.435Z,1.32
2022-11-17T19:19:14.574Z,1.31
2022-11-17T19:21:43.634Z,1.25
2022-11-17T19:24:12.392Z,1.23
2022-11-17T19:26:40.824Z,1.21
2022-11-17T19:29:16.734Z,1.23
2022-11-17T19:31:47.640Z,1.27
2022-11-17T19:34:18.736Z,1.28
2022-11-17T19:36:47.423Z,1.31
2022-11-17T19:39:17.170Z,1.31
2022-11-17T19:41:47.747Z,1.29
2022-11-17T19:44:16.399Z,1.28
2022-11-17T19:46:47.979Z,1.29
2022-11-17T19:49:16.674Z,1.28
2022-11-17T19:51:45.516Z,1.20
2022-11-17T19:54:16.249Z,1.21
2022-11-17T19:56:44.921Z,1.22
2022-11-17T19:59:16.349Z,1.20
2022-11-17T20:01:46.289Z,1.16
2022-11-17T20:04:15.155Z,1.15
2022-11-17T20:06:43.656Z,1.19
2022-11-17T20:09:15.164Z,1.20
2022-11-17T20:11:44.148Z,1.13
2022-11-17T20:14:14.580Z,1.12
2022-11-17T20:16:43.453Z,1.15
2022-11-17T20:19:14.224Z,1.14
2022-11-17T20:21:43.085Z,1.14
2022-11-17T20:24:11.779Z,1.21
2022-11-17T20:26:42.729Z,1.13
2022-11-17T20:29:11.298Z,1.10
2022-11-17T20:31:40.021Z,1.18
2022-11-17T20:34:12.902Z,1.14
2022-11-17T20:36:41.422Z,1.15
2022-11-17T20:39:10.150Z,1.18
2022-11-17T20:41:38.747Z,1.07
2022-11-17T20:44:24.055Z,1.09
2022-11-17T20:46:57.797Z,1.00
2022-11-17T20:49:30.050Z,0.97
2022-11-17T20:51:58.774Z,1.04
2022-11-17T20:54:27.365Z,1.04
2022-11-17T20:56:55.981Z,1.05
2022-11-17T20:59:24.817Z,1.06
2022-11-17T21:01:53.671Z,1.09
2022-11-17T21:04:22.258Z,1.15
2022-11-17T21:06:51.049Z,1.14
2022-11-17T21:09:19.881Z,1.16
2022-11-17T21:11:57.431Z,1.15
2022-11-17T21:14:27.707Z,1.18
2022-11-17T21:16:57.872Z,1.24
2022-11-17T21:19:27.604Z,1.25
2022-11-17T21:21:56.511Z,1.27
2022-11-17T21:24:26.345Z,1.29
2022-11-17T21:26:54.793Z,1.28
2022-11-17T21:29:23.419Z,1.26
2022-11-17T21:31:51.964Z,1.18
2022-11-17T21:34:20.576Z,1.11
2022-11-17T21:36:49.233Z,1.15
2022-11-17T21:39:19.804Z,1.15
2022-11-17T21:41:48.541Z,1.16
2022-11-17T21:44:17.396Z,1.17
2022-11-17T21:46:45.865Z,1.18
2022-11-17T21:49:14.758Z,1.18
2022-11-17T21:51:43.650Z,1.09
2022-11-17T21:54:12.172Z,1.09
2022-11-17T21:56:40.965Z,1.11
2022-11-17T21:59:14.233Z,1.12
2022-11-17T22:01:43.870Z,1.12
2022-11-17T22:04:13.326Z,1.09
2022-11-17T22:06:42.071Z,1.07
2022-11-17T22:09:10.597Z,1.12
2022-11-17T22:11:39.298Z,1.16
2022-11-17T22:14:16.281Z,1.16
2022-11-17T22:16:53.969Z,1.18
2022-11-17T22:19:26.962Z,1.18
2022-11-17T22:21:55.614Z,1.17
2022-11-17T22:24:24.257Z,1.16
2022-11-17T22:26:52.629Z,1.17
2022-11-17T22:29:22.558Z,1.11
2022-11-17T22:31:51.435Z,1.12
2022-11-17T22:34:19.870Z,1.12
2022-11-17T22:36:48.267Z,1.20
2022-11-17T22:39:17.060Z,1.29
2022-11-17T22:41:45.649Z,1.38
2022-11-17T22:44:16.017Z,1.40
2022-11-17T22:46:44.472Z,1.36
2022-11-17T22:49:13.502Z,1.33
2022-11-17T22:52:00.664Z,1.33
2022-11-17T22:54:30.472Z,1.34
2022-11-17T22:56:59.265Z,1.36
2022-11-17T22:59:29.053Z,1.39
2022-11-17T23:01:57.652Z,1.38
2022-11-17T23:04:26.268Z,1.30
2022-11-17T23:06:54.929Z,1.26
2022-11-17T23:09:23.458Z,1.27
2022-11-17T23:11:51.904Z,1.28
2022-11-17T23:14:20.428Z,1.24
2022-11-17T23:16:49.003Z,1.19
2022-11-17T23:19:17.915Z,1.17
2022-11-17T23:21:46.817Z,1.20
2022-11-17T23:24:15.345Z,1.19
2022-11-17T23:26:43.895Z,1.19
2022-11-17T23:29:12.387Z,1.16
2022-11-17T23:31:40.878Z,1.15
2022-11-17T23:34:11.004Z,1.19
2022-11-17T23:36:39.805Z,1.27
2022-11-17T23:39:08.414Z,1.28
2022-11-17T23:41:37.289Z,1.33
2022-11-17T23:44:06.471Z,1.36
2022-11-17T23:46:35.277Z,1.39
2022-11-17T23:49:04.131Z,1.39
2022-11-17T23:51:32.822Z,1.36
2022-11-17T23:54:03.075Z,1.34
2022-11-17T23:56:33.849Z,1.40
2022-11-17T23:59:02.454Z,1.49
